Main page
METAR-TAF:

METAR-TAF

Airports :

Centralia Municipal Airport

Centralia, Illinois, United States

latitude: 38-30-53N, longitude: 089-05-32W, elevation: 535 ft

Current weather observation

The report was made 23 minutes ago, at 11:55 UTC
Wind 5 mph from the East/Northeast
Temperature 64°F
Humidity 88%
Pressure 29.93 in. Hg
Visibility: 10 miles
Clear sky

METAR: KENL 231155Z AUTO 06004KT 10SM CLR 18/16 A2993 RMK AO2 LTG DSNT E 60001 70001 T01750155 10177 20167

Time: 07:18 (12:18 UTC)


TAF: missing

Weather observations and forecasts of more than 4000 airports (METAR and TAF reports).

The available stations are represented by yellow and red dots on the map.

Hover mouse over dot to see the name of the station.

Then click to see weather observations and forecasts.

To change the map : click on the green buttons with a black cross to zoom in, on the green button with a dash to zoom out, or on the green arrows for adjacent maps.


METAR-TAF: